Time;durP1;ratioP1;P1;durP2;ratioP2;P2;SDS_P1;SDS_P2;PMS_P1;PMS_P2;Temp;Humidity;BMP_temperature;BMP_pressure;BME280_temperature;BME280_humidity;BME280_pressure;Samples;Min_cycle;Max_cycle;Signal;HPM_P1;HPM_P2
2022/03/20 00:00:55;;;;;;;31.90;18.63;;;4.10;77.40;;;2.82;60.95;98399.75;5004474;28;20489;-77
2022/03/20 00:03:24;;;;;;;29.65;19.17;;;4.10;77.20;;;2.84;61.00;98399.56;5011096;28;20427;-78
2022/03/20 00:05:51;;;;;;;35.40;21.02;;;4.10;77.00;;;2.83;61.41;98408.41;5006264;28;20965;-76
2022/03/20 00:08:17;;;;;;;32.13;18.73;;;3.90;77.40;;;2.72;61.16;98399.16;4998259;28;20455;-78
2022/03/20 00:10:45;;;;;;;32.88;19.52;;;4.00;77.40;;;2.75;61.59;98387.56;5005357;28;20899;-76
2022/03/20 00:13:15;;;;;;;31.48;19.40;;;4.00;77.80;;;2.64;61.74;98397.44;5001579;28;20403;-76
2022/03/20 00:15:44;;;;;;;29.95;18.90;;;3.90;77.70;;;2.65;61.54;98391.22;4999305;28;20428;-76
2022/03/20 00:18:12;;;;;;;33.40;19.85;;;3.90;78.00;;;2.68;61.82;98392.69;5006659;28;20524;-77
2022/03/20 00:20:41;;;;;;;31.20;18.07;;;3.80;78.20;;;2.54;61.96;98388.22;5004309;28;20399;-76
2022/03/20 00:23:09;;;;;;;35.13;19.90;;;3.80;78.10;;;2.59;61.59;98384.09;4999694;28;20420;-77
2022/03/20 00:25:37;;;;;;;32.80;19.45;;;3.80;78.00;;;2.63;61.72;98392.41;5009455;28;20405;-77
2022/03/20 00:28:04;;;;;;;31.20;19.58;;;3.80;78.10;;;2.61;61.52;98383.91;4996988;28;20481;-77
2022/03/20 00:30:31;;;;;;;32.13;18.63;;;3.80;78.10;;;2.51;61.87;98385.94;5000980;28;20465;-76
2022/03/20 00:32:58;;;;;;;31.83;19.70;;;3.80;78.20;;;2.55;61.88;98385.44;5002563;28;20497;-76
2022/03/20 00:35:24;;;;;;;34.63;18.52;;;3.80;78.20;;;2.53;61.69;98381.38;5002688;28;20477;-77
2022/03/20 00:37:50;;;;;;;33.03;20.10;;;3.80;78.10;;;2.56;62.10;98375.78;5001188;28;20778;-76
2022/03/20 00:40:16;;;;;;;32.00;18.23;;;3.70;78.40;;;2.54;62.05;98383.81;4997151;28;20442;-76
2022/03/20 00:42:42;;;;;;;33.92;19.95;;;3.80;78.50;;;2.54;61.64;98383.81;5000942;28;20413;-76
2022/03/20 00:45:09;;;;;;;31.30;18.60;;;3.70;78.20;;;2.47;61.75;98377.66;5009557;28;20417;-77
2022/03/20 00:47:35;;;;;;;34.63;20.08;;;3.70;78.20;;;2.51;61.66;98385.94;5001747;28;20403;-76
2022/03/20 00:50:03;;;;;;;33.22;18.05;;;3.70;78.00;;;2.43;61.69;98386.00;5002068;28;20466;-77
2022/03/20 00:52:32;;;;;;;29.75;17.98;;;3.70;78.10;;;2.44;61.59;98370.16;5000978;28;20407;-77
2022/03/20 00:54:58;;;;;;;31.80;18.95;;;3.70;78.20;;;2.46;61.78;98372.59;5005524;28;20917;-77
2022/03/20 00:57:24;;;;;;;32.03;19.23;;;3.70;77.90;;;2.43;61.93;98373.75;4996943;28;20403;-77
2022/03/20 00:59:50;;;;;;;31.00;19.08;;;3.60;78.10;;;2.43;61.70;98373.75;5000336;28;20451;-78
2022/03/20 01:02:16;;;;;;;30.58;17.52;;;3.60;78.10;;;2.36;61.98;98377.25;5003309;28;20454;-80
2022/03/20 01:04:42;;;;;;;29.67;15.82;;;3.60;78.30;;;2.31;62.07;98369.94;5008659;28;20419;-80
2022/03/20 01:07:09;;;;;;;27.48;16.75;;;3.60;78.60;;;2.30;62.17;98382.19;4997323;28;20403;-79
2022/03/20 01:09:36;;;;;;;28.85;17.17;;;3.60;78.50;;;2.35;61.82;98368.59;5007292;23;20442;-80
2022/03/20 01:12:03;;;;;;;32.65;19.02;;;3.60;78.20;;;2.44;61.98;98374.56;5000601;28;20398;-81
2022/03/20 01:14:29;;;;;;;24.27;15.63;;;3.70;78.40;;;2.33;62.19;98373.19;4997016;28;20530;-81
2022/03/20 01:16:55;;;;;;;24.30;15.43;;;3.60;78.30;;;2.36;62.26;98372.03;4995350;28;20513;-81
2022/03/20 01:19:21;;;;;;;25.38;16.00;;;3.60;78.40;;;2.38;61.48;98364.81;5004378;28;20909;-81
2022/03/20 01:21:47;;;;;;;33.58;17.95;;;3.60;77.80;;;2.42;60.99;98360.88;4995426;28;20461;-82
2022/03/20 01:24:14;;;;;;;27.92;15.73;;;3.70;77.40;;;2.34;61.57;98373.00;5002962;28;20503;-81
2022/03/20 01:26:40;;;;;;;29.63;17.45;;;3.70;77.80;;;2.38;61.56;98367.44;4999429;28;20448;-82
2022/03/20 01:29:06;;;;;;;28.17;17.08;;;3.70;78.00;;;2.38;61.79;98362.22;5016294;28;20410;-81
2022/03/20 01:31:32;;;;;;;32.25;18.42;;;3.70;78.00;;;2.44;62.23;98358.91;4997879;28;20419;-87
2022/03/20 01:33:58;;;;;;;27.20;16.42;;;3.60;78.30;;;2.32;62.11;98356.72;5002495;28;20412;-86
2022/03/20 01:36:24;;;;;;;29.92;17.77;;;3.60;78.20;;;2.40;62.06;98361.06;5003283;28;20894;-86
2022/03/20 01:38:50;;;;;;;27.27;16.27;;;3.60;78.50;;;2.28;62.25;98363.25;4999717;28;20417;-86
2022/03/20 01:41:17;;;;;;;26.45;16.17;;;3.60;78.50;;;2.28;62.51;98357.22;5001431;28;20404;-87
2022/03/20 01:43:49;;;;;;;29.60;17.50;;;3.60;78.90;;;2.32;62.04;98353.28;4996716;28;20888;-86
2022/03/20 01:46:16;;;;;;;32.13;17.43;;;3.60;78.60;;;2.33;62.09;98353.09;5002372;28;20506;-86
2022/03/20 01:48:42;;;;;;;30.53;18.07;;;3.60;78.50;;;2.29;62.51;98351.00;5004463;28;20404;-87
2022/03/20 01:51:10;;;;;;;29.23;17.42;;;3.60;78.90;;;2.25;62.64;98345.34;5007569;28;20487;-87
2022/03/20 01:53:36;;;;;;;31.50;17.10;;;3.50;79.10;;;2.28;62.24;98336.31;4999528;28;20408;-87
2022/03/20 01:56:03;;;;;;;29.50;16.17;;;3.50;78.80;;;2.19;62.70;98326.91;5003266;28;20517;-87
2022/03/20 01:58:32;;;;;;;24.65;15.15;;;3.50;78.90;;;2.16;62.62;98330.69;4998721;28;20409;-87
2022/03/20 02:00:58;;;;;;;27.40;17.20;;;3.50;79.10;;;2.24;63.23;98333.25;5001483;28;20920;-74
2022/03/20 02:03:23;;;;;;;27.85;17.20;;;3.50;79.70;;;2.22;62.68;98342.25;4998041;28;20427;-73
2022/03/20 02:05:50;;;;;;;32.17;18.25;;;3.50;79.50;;;2.24;62.79;98333.25;4990259;28;20550;-73
2022/03/20 02:08:16;;;;;;;30.00;18.70;;;3.50;79.50;;;2.21;62.34;98333.59;4989650;28;20504;-82
2022/03/20 02:10:43;;;;;;;33.40;18.60;;;3.50;79.30;;;2.26;62.93;98340.91;5002303;28;20421;-77
2022/03/20 02:13:09;;;;;;;28.98;17.92;;;3.50;79.70;;;2.11;62.98;98335.63;4996393;28;20417;-79
2022/03/20 02:15:36;;;;;;;29.27;17.67;;;3.40;79.70;;;2.17;63.05;98341.97;4994198;28;20410;-80
2022/03/20 02:18:03;;;;;;;27.50;16.42;;;3.40;79.90;;;2.08;62.97;98327.34;5002649;28;20506;-80
2022/03/20 02:20:29;;;;;;;32.95;18.45;;;3.40;79.80;;;2.17;63.54;98334.94;4997608;28;20886;-75
2022/03/20 02:22:57;;;;;;;28.63;17.75;;;3.40;80.10;;;2.13;63.01;98327.63;5005013;28;20407;-75
2022/03/20 02:25:23;;;;;;;31.88;18.95;;;3.40;79.80;;;2.15;63.10;98323.03;5001450;28;20518;-75
2022/03/20 02:27:49;;;;;;;25.05;16.13;;;3.40;79.80;;;2.05;63.22;98327.66;5001206;28;20407;-75
2022/03/20 02:30:18;;;;;;;26.63;16.00;;;3.40;80.00;;;2.03;63.31;98322.63;4999017;28;20408;-75
2022/03/20 02:32:46;;;;;;;29.52;18.40;;;3.30;80.20;;;2.19;63.28;98313.84;4999355;28;20406;-76
2022/03/20 02:35:15;;;;;;;32.55;17.85;;;3.40;80.20;;;2.12;63.40;98315.53;4997441;28;20420;-76
2022/03/20 02:37:42;;;;;;;28.17;17.70;;;3.40;80.20;;;2.13;63.52;98314.56;4995754;28;20410;-76
2022/03/20 02:40:11;;;;;;;27.60;16.85;;;3.40;80.30;;;2.10;63.24;98317.53;5000864;28;21240;-77
2022/03/20 02:42:40;;;;;;;30.33;16.50;;;3.40;80.20;;;2.09;63.27;98306.28;5000690;28;20500;-76
2022/03/20 02:45:09;;;;;;;27.27;16.55;;;3.40;81.00;;;2.14;63.23;98308.34;4999757;28;20493;-76
2022/03/20 02:47:38;;;;;;;30.45;17.08;;;3.40;80.10;;;2.14;63.06;98303.94;5000871;28;20886;-77
2022/03/20 02:50:07;;;;;;;25.95;16.50;;;3.40;80.00;;;2.14;63.04;98305.75;5006014;28;20900;-76
2022/03/20 02:52:46;;;;;;;28.83;17.55;;;3.40;79.90;;;2.17;62.86;98313.22;5000550;28;20959;-76
2022/03/20 02:55:15;;;;;;;26.50;17.00;;;3.40;80.40;;;2.11;62.71;98303.47;4996051;28;20412;-76
2022/03/20 02:57:42;;;;;;;31.15;17.08;;;3.40;79.70;;;2.13;62.72;98311.94;4996269;28;20437;-76
2022/03/20 03:00:10;;;;;;;30.48;17.98;;;3.40;79.80;;;2.13;62.86;98304.94;5004909;28;20416;-76
2022/03/20 03:02:44;;;;;;;30.33;17.42;;;3.40;79.70;;;2.06;63.04;98297.97;5000816;28;20961;-77
2022/03/20 03:05:11;;;;;;;26.95;15.90;;;3.40;80.10;;;2.07;63.17;98294.38;5002029;28;20673;-77
2022/03/20 03:13:08;;;;;;;26.98;16.65;;;3.30;80.00;;;2.03;62.99;98309.56;5009836;28;21004;-77
2022/03/20 03:15:34;;;;;;;26.27;16.20;;;3.30;80.00;;;2.02;63.35;98304.53;5003813;28;20432;-77
2022/03/20 03:18:00;;;;;;;27.60;15.63;;;3.30;80.10;;;1.99;63.13;98305.69;5005894;28;20499;-77
2022/03/20 03:20:27;;;;;;;26.48;15.98;;;3.30;80.00;;;1.94;63.47;98314.06;5000164;28;20899;-77
2022/03/20 03:22:53;;;;;;;22.80;14.25;;;3.30;80.10;;;1.91;63.42;98314.38;5004562;28;20432;-77
2022/03/20 03:25:18;;;;;;;23.20;13.90;;;3.20;80.20;;;1.91;63.41;98319.59;5001496;28;20429;-77
2022/03/20 03:27:46;;;;;;;26.60;15.53;;;3.20;80.20;;;1.97;63.18;98330.34;5003076;28;20437;-76
2022/03/20 03:30:15;;;;;;;30.35;17.50;;;3.30;80.10;;;2.00;63.38;98333.41;4995512;28;20401;-75
2022/03/20 03:32:41;;;;;;;25.08;15.05;;;3.30;80.20;;;1.94;63.28;98331.50;5006302;28;20413;-75
2022/03/20 03:37:52;;;;;;;28.08;17.08;;;3.20;79.70;;;1.98;63.18;98321.50;5005016;28;20821;-75
2022/03/20 03:40:18;;;;;;;26.13;15.67;;;3.30;80.10;;;1.94;63.29;98332.31;5002683;28;20505;-77
2022/03/20 03:42:46;;;;;;;29.05;17.77;;;3.20;80.10;;;2.02;62.73;98326.25;5001346;28;20412;-77
2022/03/20 03:45:12;;;;;;;24.27;14.35;;;3.30;80.00;;;1.95;63.12;98328.69;5006058;28;20408;-77
2022/03/20 03:47:38;;;;;;;25.55;15.95;;;3.30;80.00;;;1.98;63.18;98324.13;4997729;28;20413;-76
2022/03/20 03:50:05;;;;;;;22.08;13.93;;;3.30;80.10;;;2.00;63.35;98340.44;5003691;28;20411;-77
2022/03/20 03:52:31;;;;;;;24.27;14.97;;;3.30;80.10;;;2.03;63.26;98332.28;4995256;28;20485;-77
2022/03/20 03:54:57;;;;;;;23.45;15.10;;;3.30;80.00;;;2.06;63.19;98327.50;5007815;28;20432;-77
2022/03/20 03:57:23;;;;;;;28.67;16.93;;;3.30;79.90;;;2.14;62.86;98326.63;5015445;28;20976;-76
2022/03/20 03:59:50;;;;;;;26.98;16.13;;;3.40;79.80;;;2.16;62.63;98315.03;5006151;28;20397;-77
2022/03/20 04:02:16;;;;;;;29.42;17.80;;;3.40;79.30;;;2.24;62.03;98320.19;5002622;28;20528;-77
2022/03/20 04:04:42;;;;;;;31.77;17.90;;;3.50;79.10;;;2.31;61.44;98320.31;5003147;28;20445;-77
2022/03/20 04:07:09;;;;;;;29.80;17.50;;;3.50;78.10;;;2.37;61.39;98319.59;5003838;28;20424;-77
2022/03/20 04:09:36;;;;;;;30.25;17.55;;;3.60;78.10;;;2.36;61.30;98315.34;5000526;28;20410;-77
2022/03/20 04:12:04;;;;;;;31.08;16.52;;;3.60;77.80;;;2.33;61.38;98313.13;4999627;28;20835;-76
2022/03/20 04:14:30;;;;;;;30.75;17.90;;;3.60;77.90;;;2.36;60.97;98323.19;4999574;28;20406;-76
2022/03/20 04:16:57;;;;;;;34.95;18.98;;;3.60;77.60;;;2.29;61.38;98330.94;5006991;28;20416;-77
2022/03/20 04:19:24;;;;;;;29.13;17.20;;;3.50;77.60;;;2.12;61.44;98325.97;5002810;28;20781;-77
2022/03/20 04:21:50;;;;;;;31.92;18.30;;;3.40;78.00;;;2.08;61.79;98319.50;5003349;28;20419;-77
2022/03/20 04:24:16;;;;;;;35.42;19.77;;;3.30;78.20;;;2.04;61.90;98326.03;5001494;28;20415;-76
2022/03/20 04:26:42;;;;;;;29.20;18.05;;;3.30;78.40;;;1.95;62.16;98328.69;5002289;28;20477;-77
2022/03/20 04:29:08;;;;;;;33.83;19.33;;;3.20;78.50;;;1.97;61.56;98327.72;4999344;28;20497;-77
2022/03/20 04:31:34;;;;;;;32.85;18.98;;;3.20;78.40;;;1.92;62.09;98329.06;5001111;28;20413;-76
2022/03/20 04:34:04;;;;;;;32.05;19.17;;;3.20;78.60;;;1.90;61.77;98333.63;4998072;28;20510;-76
2022/03/20 04:36:30;;;;;;;34.60;19.55;;;3.10;78.20;;;1.85;62.22;98333.34;5003558;28;20397;-76
2022/03/20 04:38:59;;;;;;;33.47;19.75;;;3.10;78.60;;;1.89;62.11;98339.03;5002633;28;20422;-76
2022/03/20 04:41:25;;;;;;;34.20;19.77;;;3.10;79.60;;;1.90;61.87;98328.41;5005524;28;20523;-77
2022/03/20 04:43:52;;;;;;;33.53;18.52;;;3.10;78.50;;;1.95;61.65;98333.13;5000114;28;20409;-77
2022/03/20 04:46:19;;;;;;;35.33;20.05;;;3.20;78.50;;;2.04;61.31;98331.25;5007437;28;20427;-76
2022/03/20 04:59:45;;;;;;;30.23;19.02;;;3.70;76.20;;;2.55;59.16;98338.41;4997943;28;20457;-76
2022/03/20 05:02:11;;;;;;;36.88;20.13;;;3.70;74.80;;;2.64;58.12;98341.72;4997873;28;20413;-78
2022/03/20 05:04:37;;;;;;;31.80;17.25;;;3.80;73.90;;;2.70;58.45;98341.03;4999775;28;20410;-77
2022/03/20 05:07:05;;;;;;;34.80;19.33;;;3.90;74.00;;;2.77;57.41;98349.81;5001410;28;20466;-77
2022/03/20 05:15:05;;;;;;;35.53;18.05;;;4.00;72.70;;;2.90;57.34;98330.88;5001083;28;20426;-77
2022/03/20 05:17:31;;;;;;;32.15;17.95;;;4.10;72.40;;;2.91;57.37;98341.16;5004069;28;20412;-78
2022/03/20 05:19:57;;;;;;;33.40;19.80;;;4.10;72.20;;;2.94;56.54;98346.00;4994573;28;20424;-78
2022/03/20 05:22:24;;;;;;;31.67;18.45;;;4.10;71.20;;;2.95;56.77;98350.25;4998797;28;20415;-78
2022/03/20 05:24:50;;;;;;;37.28;20.65;;;4.10;71.60;;;2.97;56.58;98352.69;4998153;28;20413;-78
2022/03/20 05:27:16;;;;;;;30.87;17.47;;;4.10;71.10;;;2.98;56.71;98349.09;5004603;28;20424;-86
2022/03/20 05:29:43;;;;;;;29.83;17.88;;;4.10;71.50;;;3.00;56.79;98347.13;5009543;28;20480;-75
2022/03/20 05:32:09;;;;;;;31.13;17.73;;;4.20;71.70;;;3.00;56.99;98347.94;5003893;28;20459;-83
2022/03/20 05:34:37;;;;;;;36.35;19.52;;;4.20;71.60;;;3.03;56.90;98351.97;4999874;28;20400;-83
2022/03/20 05:37:06;;;;;;;29.50;17.15;;;4.20;71.50;;;3.06;57.02;98346.41;5006196;28;20447;-82
2022/03/20 05:39:33;;;;;;;33.70;19.30;;;4.20;71.70;;;3.10;57.19;98351.09;5006973;28;20430;-82
2022/03/20 05:41:59;;;;;;;37.35;21.88;;;4.30;71.90;;;3.14;56.92;98353.34;5004952;28;20405;-80
2022/03/20 05:44:26;;;;;;;40.88;21.83;;;4.30;71.80;;;3.17;57.21;98364.25;5005079;28;20408;-75
2022/03/20 05:46:55;;;;;;;39.08;21.73;;;4.30;71.80;;;3.21;57.03;98370.75;4995240;28;20428;-75
2022/03/20 05:49:22;;;;;;;35.90;20.98;;;4.40;72.00;;;3.24;57.30;98364.34;4999291;28;20397;-75
2022/03/20 05:51:50;;;;;;;33.38;19.70;;;4.40;72.40;;;3.28;57.49;98360.38;5002713;28;20436;-77
2022/03/20 05:54:17;;;;;;;37.33;20.90;;;4.40;72.40;;;3.32;57.49;98370.31;5005626;28;20469;-75
2022/03/20 05:59:29;;;;;;;36.90;20.17;;;4.50;72.20;;;3.40;57.50;98370.22;4996766;28;20478;-76
2022/03/20 06:01:56;;;;;;;40.00;22.38;;;4.60;72.20;;;3.44;57.18;98376.72;5001724;28;20405;-76
2022/03/20 06:04:22;;;;;;;33.33;20.15;;;4.60;72.20;;;3.51;57.37;98371.56;4999921;28;20967;-76
2022/03/20 06:06:48;;;;;;;40.92;21.58;;;4.60;72.20;;;3.55;57.17;98378.06;5000172;28;20424;-75
2022/03/20 06:09:15;;;;;;;38.13;21.67;;;4.70;71.90;;;3.64;57.26;98373.53;4998598;28;20423;-73
2022/03/20 06:11:41;;;;;;;34.08;20.30;;;4.70;72.10;;;3.71;57.52;98377.84;4997572;28;20397;-73
2022/03/20 06:14:09;;;;;;;29.38;18.45;;;4.80;72.00;;;3.77;56.94;98377.13;4997446;28;20459;-74
2022/03/20 06:16:36;;;;;;;34.47;19.83;;;4.90;72.00;;;3.85;56.76;98381.44;5005345;28;20408;-74
2022/03/20 06:19:03;;;;;;;36.35;20.42;;;5.00;71.70;;;3.90;56.62;98379.09;5006138;28;20412;-73
2022/03/20 06:21:29;;;;;;;37.47;23.13;;;5.00;71.10;;;3.94;55.88;98379.53;5004969;28;20802;-81
2022/03/20 06:23:55;;;;;;;39.20;22.88;;;5.00;70.30;;;3.97;55.98;98382.59;5004727;28;20409;-83
2022/03/20 06:26:23;;;;;;;42.53;24.00;;;5.10;70.30;;;3.99;55.90;98383.22;5006081;28;20964;-84
2022/03/20 06:28:49;;;;;;;41.25;22.25;;;5.10;70.00;;;4.05;55.81;98390.34;5003300;28;20404;-83
2022/03/20 06:31:17;;;;;;;42.45;22.98;;;5.10;70.00;;;4.09;55.55;98388.16;5006285;28;20471;-73
2022/03/20 06:33:46;;;;;;;40.03;22.83;;;5.20;69.80;;;4.11;55.45;98391.41;5002076;28;20409;-73
2022/03/20 06:36:13;;;;;;;39.05;22.25;;;5.20;69.30;;;4.15;55.56;98397.91;5003588;28;20902;-73
2022/03/20 06:38:39;;;;;;;43.30;23.63;;;5.30;69.70;;;4.15;55.42;98403.13;5007321;28;20451;-73
2022/03/20 06:41:06;;;;;;;39.28;21.75;;;5.20;69.30;;;4.18;55.37;98400.16;5000995;28;20886;-73
2022/03/20 06:43:35;;;;;;;39.80;21.52;;;5.30;69.40;;;4.21;55.60;98407.66;4998705;28;20428;-73
2022/03/20 06:46:02;;;;;;;40.22;23.77;;;5.30;69.50;;;4.16;55.59;98400.34;5001840;28;20413;-73
2022/03/20 06:48:29;;;;;;;43.58;24.20;;;5.30;69.50;;;4.16;55.51;98404.78;5007836;28;20436;-73
2022/03/20 06:50:55;;;;;;;40.28;22.85;;;5.30;69.60;;;4.13;55.80;98408.59;5000438;28;20847;-74
2022/03/20 06:53:21;;;;;;;40.30;23.27;;;5.30;69.70;;;4.11;55.78;98413.19;5003293;28;20413;-74
2022/03/20 06:55:48;;;;;;;43.72;23.05;;;5.20;69.90;;;4.10;56.15;98418.63;4994789;28;20398;-73
2022/03/20 06:58:16;;;;;;;41.05;23.33;;;5.20;70.20;;;4.10;56.05;98416.00;5000709;28;20400;-74
2022/03/20 07:00:42;;;;;;;42.65;23.55;;;5.20;71.00;;;4.09;56.09;98417.78;5003878;28;20409;-73
2022/03/20 07:03:09;;;;;;;38.50;22.30;;;5.20;70.40;;;4.13;56.46;98415.63;5006860;28;20405;-74
2022/03/20 07:05:36;;;;;;;37.30;22.03;;;5.20;70.70;;;4.19;56.66;98417.50;5004989;28;20424;-74
2022/03/20 07:08:05;;;;;;;47.45;26.23;;;5.30;71.00;;;4.24;56.44;98413.34;5004775;28;20393;-74
2022/03/20 07:10:31;;;;;;;43.00;24.13;;;5.40;70.90;;;4.31;56.14;98415.22;5000644;23;20482;-79
2022/03/20 07:15:44;;;;;;;36.38;21.15;;;5.50;70.60;;;4.50;56.25;98427.72;4982285;28;20394;-80
2022/03/20 07:18:12;;;;;;;40.72;24.45;;;5.60;70.70;;;4.60;56.19;98433.44;4983226;28;20489;-79
2022/03/20 07:20:42;;;;;;;42.63;24.67;;;5.70;70.60;;;4.67;56.00;98439.56;4984816;28;20805;-80
2022/03/20 07:23:09;;;;;;;42.55;25.77;;;5.80;70.30;;;4.74;55.79;98434.38;4984495;28;20759;-79
2022/03/20 07:31:04;;;;;;;40.83;24.65;;;6.00;69.80;;;4.91;55.38;98441.00;4971974;28;20532;-90
2022/03/20 07:33:30;;;;;;;40.15;23.80;;;6.00;69.20;;;4.95;55.16;98437.81;4978243;28;20534;-82
2022/03/20 07:35:59;;;;;;;40.55;24.00;;;6.00;69.70;;;5.01;55.26;98444.94;4978517;28;20905;-74
2022/03/20 07:38:25;;;;;;;37.58;22.65;;;6.10;69.10;;;5.09;55.30;98440.53;4980600;28;20485;-78
2022/03/20 07:40:50;;;;;;;46.50;25.85;;;6.10;69.30;;;5.14;54.61;98448.66;4984362;28;20489;-85
2022/03/20 07:43:16;;;;;;;40.75;22.77;;;6.20;68.20;;;5.17;54.89;98449.09;4986596;28;20440;-85
2022/03/20 07:45:42;;;;;;;39.80;24.63;;;6.20;68.50;;;5.22;54.71;98451.94;4985475;28;20923;-85
2022/03/20 07:48:08;;;;;;;38.42;23.38;;;6.30;68.40;;;5.29;54.69;98457.25;4982175;28;20530;-85
2022/03/20 07:50:35;;;;;;;42.05;23.60;;;6.30;68.50;;;5.37;54.52;98454.47;4982248;28;20419;-87
2022/03/20 07:53:02;;;;;;;41.45;24.60;;;6.40;68.40;;;5.44;54.35;98458.78;4984155;28;20462;-85
2022/03/20 07:55:28;;;;;;;40.88;23.02;;;6.50;67.80;;;5.54;53.92;98458.44;4980505;28;20889;-86
2022/03/20 07:57:54;;;;;;;44.67;25.65;;;6.60;67.40;;;5.64;52.99;98455.47;4983550;28;20443;-86
2022/03/20 08:00:21;;;;;;;43.50;25.67;;;6.70;66.00;;;5.71;52.54;98459.72;4981539;28;20896;-74
2022/03/20 08:02:47;;;;;;;42.00;25.20;;;6.80;65.30;;;5.81;52.66;98464.66;4987329;28;20414;-74
2022/03/20 08:05:13;;;;;;;40.75;24.98;;;6.90;65.50;;;5.88;52.77;98462.91;4983475;28;20506;-74
2022/03/20 08:07:39;;;;;;;38.63;23.48;;;6.90;65.50;;;5.97;52.98;98456.47;4987079;28;20419;-82
2022/03/20 08:10:09;;;;;;;40.13;24.25;;;7.00;66.00;;;6.08;52.67;98455.94;5001583;28;20410;-88
2022/03/20 08:12:36;;;;;;;48.03;26.65;;;7.10;65.60;;;6.20;51.22;98456.16;4977908;28;20412;-86
2022/03/20 08:15:03;;;;;;;45.40;26.25;;;7.30;63.50;;;6.26;51.16;98457.19;4966254;28;20412;-88
2022/03/20 08:17:43;;;;;;;41.97;24.73;;;7.30;63.40;;;6.35;51.39;98463.91;4967672;28;20428;-88
2022/03/20 08:20:10;;;;;;;42.40;25.23;;;7.40;63.60;;;6.44;50.93;98450.38;4964954;28;20462;-88
2022/03/20 08:22:37;;;;;;;36.60;21.83;;;7.50;62.80;;;6.51;50.97;98458.28;4980576;28;20419;-88
2022/03/20 08:25:03;;;;;;;38.53;23.97;;;7.50;63.10;;;6.59;50.54;98456.28;4978065;28;20425;-88
2022/03/20 08:27:40;;;;;;;37.33;23.30;;;7.60;62.30;;;6.67;50.56;98457.13;4980217;28;20420;-89
2022/03/20 08:30:11;;;;;;;35.53;21.08;;;7.60;62.60;;;6.74;50.97;98458.75;4973308;28;20440;-87
2022/03/20 08:32:37;;;;;;;36.13;22.48;;;7.70;63.00;;;6.81;50.20;98458.75;4975443;28;20451;-88
2022/03/20 08:35:04;;;;;;;33.60;20.45;;;7.80;62.00;;;6.85;50.13;98466.03;4976184;28;20889;-87
2022/03/20 08:37:31;;;;;;;42.72;22.83;;;7.80;62.10;;;6.92;50.27;98464.22;4976684;28;20751;-88
2022/03/20 08:39:57;;;;;;;39.95;22.88;;;7.90;62.30;;;7.02;50.38;98465.66;4969558;28;20439;-88
2022/03/20 08:42:24;;;;;;;41.65;24.40;;;8.00;62.10;;;7.13;49.61;98468.50;4968893;28;20448;-87
2022/03/20 08:44:52;;;;;;;43.83;25.05;;;8.10;60.60;;;7.29;49.22;98470.72;4965764;28;20408;-88
2022/03/20 08:47:19;;;;;;;38.50;22.80;;;8.30;60.50;;;7.39;49.16;98468.50;4972915;28;20583;-88
2022/03/20 08:49:45;;;;;;;33.80;20.90;;;8.40;60.50;;;7.49;49.26;98470.72;4973270;28;20406;-89
2022/03/20 08:52:11;;;;;;;41.65;24.35;;;8.40;60.50;;;7.57;48.88;98472.34;4973165;28;20409;-89
2022/03/20 08:54:37;;;;;;;39.03;23.27;;;8.60;59.90;;;7.65;49.37;98485.28;4973468;28;20400;-88
2022/03/20 08:57:06;;;;;;;32.55;20.70;;;8.60;60.60;;;7.76;48.91;98482.00;4956245;28;20440;-88
2022/03/20 08:59:32;;;;;;;36.88;21.35;;;8.70;60.20;;;7.84;48.41;98476.53;4973399;28;20450;-88
2022/03/20 09:01:59;;;;;;;38.77;22.63;;;8.80;59.40;;;8.12;46.50;98479.69;4973106;28;20408;-86
2022/03/20 09:04:25;;;;;;;33.35;20.77;;;9.10;57.10;;;8.19;46.33;98476.22;4973356;28;20808;-88
2022/03/20 09:06:51;;;;;;;34.40;21.42;;;9.10;56.90;;;8.31;46.66;98479.84;4973389;28;20423;-90
2022/03/20 09:09:17;;;;;;;42.47;22.65;;;9.20;57.20;;;8.48;44.88;98476.53;4973101;28;20503;-88
2022/03/20 09:11:45;;;;;;;36.13;21.60;;;9.50;55.60;;;8.61;44.60;98478.28;4972905;28;20483;-88
2022/03/20 09:14:10;;;;;;;33.45;21.13;;;9.60;55.10;;;8.74;44.95;98480.84;4973320;28;20404;-89
2022/03/20 09:19:22;;;;;;;29.77;18.05;;;9.80;54.90;;;9.06;44.28;98476.38;4973060;28;20457;-88
2022/03/20 09:21:48;;;;;;;25.42;16.23;;;9.90;54.50;;;9.24;44.38;98473.00;4972520;28;20435;-88
2022/03/20 09:24:15;;;;;;;22.98;15.07;;;10.00;54.60;;;9.40;44.32;98475.06;4973152;28;20526;-88
2022/03/20 09:26:41;;;;;;;32.67;19.85;;;10.20;54.80;;;9.44;42.53;98473.63;4972998;28;20432;-89
2022/03/20 09:29:07;;;;;;;34.25;19.50;;;10.40;52.90;;;9.64;42.55;98487.47;4973082;28;20408;-90
2022/03/20 09:31:34;;;;;;;34.87;20.27;;;10.60;52.70;;;9.80;42.81;98482.66;4972951;28;20502;-88
2022/03/20 09:34:01;;;;;;;36.63;20.88;;;10.70;52.80;;;10.01;41.58;98483.03;4972885;28;20408;-87
2022/03/20 09:36:29;;;;;;;37.13;21.55;;;11.00;51.60;;;10.19;41.92;98486.75;4973020;28;20408;-89
2022/03/20 09:38:55;;;;;;;30.08;18.70;;;11.10;52.00;;;10.40;41.70;98488.91;4972693;28;20416;-88
2022/03/20 09:41:31;;;;;;;28.30;16.80;;;11.20;51.50;;;10.81;41.66;98490.84;4972562;28;20785;-88
2022/03/20 09:43:57;;;;;;;29.77;17.33;;;11.50;51.90;;;11.21;41.32;98485.75;4971701;28;20883;-87
2022/03/20 09:46:25;;;;;;;31.58;19.40;;;11.90;51.40;;;11.71;39.90;98483.50;4972754;28;20952;-89
2022/03/20 09:48:53;;;;;;;30.55;18.23;;;12.50;49.80;;;12.04;40.10;98501.47;4972836;28;20407;-88
2022/03/20 09:51:19;;;;;;;36.95;19.92;;;12.70;49.70;;;12.21;39.85;98498.91;4972490;28;20396;-89
2022/03/20 09:53:46;;;;;;;32.92;18.25;;;13.00;49.10;;;12.29;40.45;98493.25;4972758;28;20412;-89
2022/03/20 09:56:12;;;;;;;35.97;19.23;;;13.10;49.70;;;12.37;40.34;98503.50;4973062;28;20408;-85
2022/03/20 09:58:38;;;;;;;39.28;19.85;;;13.10;49.40;;;12.22;40.70;98501.34;4955800;28;20569;-88
2022/03/20 10:01:04;;;;;;;30.37;18.90;;;13.10;49.60;;;12.16;40.51;98506.78;4972592;28;20410;-89
2022/03/20 10:03:30;;;;;;;33.13;19.73;;;13.00;49.60;;;12.29;40.59;98512.63;4972601;28;20416;-89
2022/03/20 10:06:16;;;;;;;39.53;21.42;;;13.10;50.00;;;12.43;40.02;98509.72;4972775;28;20451;-87
2022/03/20 10:09:04;;;;;;;31.27;18.38;;;13.20;49.20;;;12.55;40.32;98500.69;4972374;28;20412;-87
2022/03/20 10:11:31;;;;;;;39.70;20.80;;;13.30;49.50;;;12.72;39.66;98529.94;4972371;28;20890;-87
2022/03/20 10:14:09;;;;;;;33.67;19.70;;;13.40;48.50;;;12.62;40.10;98511.97;4972642;28;20427;-88
2022/03/20 10:16:36;;;;;;;31.98;16.42;;;13.30;49.10;;;12.98;40.46;98515.28;4955021;28;20408;-91
2022/03/20 10:19:24;;;;;;;30.90;19.67;;;13.70;50.00;;;13.08;39.52;98510.94;4972062;28;20435;-89
2022/03/20 10:21:54;;;;;;;36.22;19.42;;;13.80;48.70;;;13.18;39.52;98507.69;4972203;28;20412;-89
2022/03/20 10:24:26;;;;;;;34.20;19.83;;;13.90;48.20;;;13.17;38.96;98522.03;4972720;28;20400;-89
2022/03/20 10:27:04;;;;;;;26.95;16.70;;;13.90;47.60;;;13.22;39.61;98508.03;4972251;28;20420;-89
2022/03/20 10:29:36;;;;;;;23.38;15.07;;;14.00;48.30;;;13.34;39.75;98506.09;4972599;28;20404;-90
2022/03/20 10:32:08;;;;;;;28.35;16.30;;;14.10;48.90;;;13.39;39.75;98514.16;4972450;28;20404;-89
2022/03/20 10:34:52;;;;;;;28.08;15.85;;;14.10;48.80;;;13.82;39.55;98506.34;4972572;28;20417;-89
2022/03/20 10:37:22;;;;;;;24.15;15.13;;;14.50;48.60;;;14.07;38.73;98513.84;4972327;28;20400;-89
2022/03/20 10:40:07;;;;;;;26.65;16.88;;;14.80;47.80;;;14.14;38.61;98508.34;4972388;28;20741;-89
2022/03/20 10:42:33;;;;;;;21.58;14.15;;;14.90;47.50;;;14.21;38.59;98514.31;4972334;28;20921;-88
2022/03/20 10:45:05;;;;;;;26.70;15.80;;;15.00;47.60;;;14.23;38.82;98512.22;4972728;28;20488;-90
2022/03/20 10:47:31;;;;;;;27.80;15.18;;;14.90;47.70;;;14.18;39.11;98509.50;4972459;28;20420;-89
2022/03/20 10:50:04;;;;;;;20.75;12.85;;;14.90;48.60;;;14.22;39.21;98503.41;4972364;28;20901;-90
2022/03/20 10:52:30;;;;;;;15.23;10.30;;;14.90;48.40;;;14.37;39.63;98505.47;4972356;28;20408;-89
2022/03/20 10:54:58;;;;;;;16.73;10.63;;;15.00;48.90;;;14.54;39.80;98508.91;4972938;28;20408;-89
2022/03/20 10:57:32;;;;;;;16.05;9.40;;;15.10;49.10;;;14.80;40.06;98506.53;4973060;28;20404;-89